Time;durP1;ratioP1;P1;durP2;ratioP2;P2;SDS_P1;SDS_P2;PMS_P1;PMS_P2;Temp;Humidity;BMP_temperature;BMP_pressure;BME280_temperature;BME280_humidity;BME280_pressure;Samples;Min_cycle;Max_cycle;Signal;HPM_P1;HPM_P2
2022/07/11 00:01:49;;;;;;;3.08;1.20;;;19.60;70.60;;;;;;5033091;28;20030;-67
2022/07/11 00:04:15;;;;;;;2.30;1.30;;;19.60;70.50;;;;;;5040703;28;20025;-68
2022/07/11 00:06:40;;;;;;;2.45;1.27;;;19.60;70.50;;;;;;5038296;28;20044;-67
2022/07/11 00:09:06;;;;;;;4.57;1.33;;;19.60;70.60;;;;;;5050587;28;20083;-67
2022/07/11 00:11:31;;;;;;;3.30;1.40;;;19.60;70.70;;;;;;5050413;28;20560;-66
2022/07/11 00:13:57;;;;;;;4.05;1.48;;;19.60;70.80;;;;;;5047661;28;20056;-66
2022/07/11 00:16:23;;;;;;;3.78;1.33;;;19.50;70.80;;;;;;5034268;28;20029;-67
2022/07/11 00:18:49;;;;;;;2.92;1.25;;;19.60;71.00;;;;;;5054818;28;20029;-66
2022/07/11 00:21:14;;;;;;;5.65;1.50;;;19.50;71.00;;;;;;5032054;28;20088;-67
2022/07/11 00:23:40;;;;;;;4.22;1.30;;;19.50;71.00;;;;;;5044984;28;20026;-67
2022/07/11 00:26:05;;;;;;;2.72;1.33;;;19.50;71.00;;;;;;5052349;28;20029;-67
2022/07/11 00:28:31;;;;;;;2.42;1.20;;;19.50;71.00;;;;;;5034057;28;20403;-68
2022/07/11 00:30:57;;;;;;;2.83;1.20;;;19.50;71.00;;;;;;5047526;28;20025;-67
2022/07/11 00:33:22;;;;;;;2.45;1.50;;;19.60;71.10;;;;;;5045456;28;20112;-68
2022/07/11 00:35:48;;;;;;;3.25;1.60;;;19.60;71.00;;;;;;5052301;28;20031;-68
2022/07/11 00:38:14;;;;;;;4.15;1.50;;;19.60;71.00;;;;;;5037805;28;20033;-68
2022/07/11 00:40:39;;;;;;;2.30;1.30;;;19.60;71.00;;;;;;5033449;28;20084;-68
2022/07/11 00:43:06;;;;;;;3.33;1.40;;;19.60;71.10;;;;;;5042352;28;20029;-67
2022/07/11 00:45:32;;;;;;;4.15;1.50;;;19.60;71.00;;;;;;5047855;28;20029;-67
2022/07/11 00:47:58;;;;;;;3.83;1.40;;;19.60;71.00;;;;;;5038879;28;20100;-67
2022/07/11 00:50:24;;;;;;;2.28;1.30;;;19.60;71.10;;;;;;5031067;28;20718;-67
2022/07/11 00:52:51;;;;;;;4.43;1.48;;;19.50;71.10;;;;;;5040419;28;20090;-68
2022/07/11 00:55:17;;;;;;;1.90;1.20;;;19.50;71.20;;;;;;5046569;28;20033;-68
2022/07/11 00:57:43;;;;;;;2.50;1.20;;;19.50;71.20;;;;;;5045953;28;20070;-67
2022/07/11 01:00:09;;;;;;;3.03;1.40;;;19.50;71.30;;;;;;5031605;28;20037;-67
2022/07/11 01:02:35;;;;;;;2.40;1.10;;;19.50;71.30;;;;;;5041754;28;20026;-68
2022/07/11 01:05:00;;;;;;;2.70;1.30;;;19.50;71.30;;;;;;5041307;28;20032;-68
2022/07/11 01:07:26;;;;;;;3.92;1.30;;;19.50;71.40;;;;;;5036198;28;20033;-68
2022/07/11 01:09:52;;;;;;;2.33;1.15;;;19.40;71.50;;;;;;5050633;28;20036;-68
2022/07/11 01:12:17;;;;;;;2.10;1.13;;;19.50;71.70;;;;;;5036415;28;20395;-68
2022/07/11 01:14:53;;;;;;;3.28;1.20;;;19.40;71.60;;;;;;5049251;28;20226;-69
2022/07/11 01:17:19;;;;;;;1.90;1.10;;;19.40;71.70;;;;;;5048501;28;20033;-68
2022/07/11 01:19:45;;;;;;;1.98;1.00;;;19.40;71.70;;;;;;5031056;28;20091;-68
2022/07/11 01:22:14;;;;;;;1.42;0.90;;;19.40;71.70;;;;;;5031944;28;20036;-67
2022/07/11 01:24:40;;;;;;;3.25;1.00;;;19.40;71.80;;;;;;5051100;28;20024;-68
2022/07/11 01:27:07;;;;;;;2.60;1.17;;;19.40;71.80;;;;;;5035722;28;20100;-67
2022/07/11 01:29:33;;;;;;;2.03;1.10;;;19.40;71.80;;;;;;5033190;28;20029;-67
2022/07/11 01:31:58;;;;;;;2.20;1.08;;;19.40;71.80;;;;;;5030172;28;20602;-66
2022/07/11 01:34:24;;;;;;;2.88;1.20;;;19.40;71.80;;;;;;5031019;28;20091;-68
2022/07/11 01:36:49;;;;;;;2.42;1.02;;;19.40;71.80;;;;;;5042202;28;20028;-67
2022/07/11 01:39:15;;;;;;;1.05;0.82;;;19.40;71.80;;;;;;5033683;28;20029;-68
2022/07/11 01:41:40;;;;;;;2.13;1.00;;;19.40;71.80;;;;;;5030215;28;20040;-67
2022/07/11 01:44:06;;;;;;;1.75;0.90;;;19.40;71.80;;;;;;5031808;28;20022;-67
2022/07/11 01:46:32;;;;;;;1.52;0.93;;;19.40;71.90;;;;;;5034364;28;20037;-67
2022/07/11 01:48:57;;;;;;;2.08;1.05;;;19.30;71.80;;;;;;5048884;28;20021;-67
2022/07/11 01:51:23;;;;;;;1.73;1.00;;;19.40;71.90;;;;;;5049750;28;20028;-67
2022/07/11 01:53:49;;;;;;;2.00;0.90;;;19.40;71.90;;;;;;5039044;28;20503;-67
2022/07/11 01:56:14;;;;;;;1.23;0.80;;;19.40;71.90;;;;;;5037824;28;20025;-68
2022/07/11 01:58:40;;;;;;;1.17;0.70;;;19.30;71.80;;;;;;5046953;28;20469;-67
2022/07/11 02:01:06;;;;;;;1.92;0.80;;;19.30;71.90;;;;;;5049664;28;20037;-68
2022/07/11 02:03:31;;;;;;;1.48;0.80;;;19.30;71.90;;;;;;5044138;28;20071;-67
2022/07/11 02:05:57;;;;;;;2.75;1.02;;;19.30;71.90;;;;;;5049418;28;20368;-67
2022/07/11 02:08:22;;;;;;;2.30;0.70;;;19.30;71.90;;;;;;5044067;28;20752;-68
2022/07/11 02:10:50;;;;;;;1.65;1.00;;;19.30;72.00;;;;;;5044340;28;20036;-67
2022/07/11 02:13:18;;;;;;;3.17;0.95;;;19.20;72.00;;;;;;5040719;28;20056;-68
2022/07/11 02:15:44;;;;;;;3.53;1.10;;;19.20;72.20;;;;;;5049836;28;20033;-67
2022/07/11 02:18:11;;;;;;;3.35;1.08;;;19.20;72.30;;;;;;5049087;28;20033;-67
2022/07/11 02:20:41;;;;;;;3.42;1.30;;;19.10;72.50;;;;;;5048825;28;20040;-67
2022/07/11 02:23:07;;;;;;;1.67;0.90;;;19.10;72.60;;;;;;5042850;28;20036;-67
2022/07/11 02:25:35;;;;;;;3.22;1.10;;;19.10;72.60;;;;;;5029773;28;20021;-67
2022/07/11 02:28:01;;;;;;;3.63;0.90;;;19.10;72.60;;;;;;5029550;28;20026;-67
2022/07/11 02:30:26;;;;;;;1.60;1.00;;;19.10;72.50;;;;;;5030727;28;20029;-67
2022/07/11 02:32:53;;;;;;;1.90;1.05;;;19.10;72.60;;;;;;5035262;28;20025;-67
2022/07/11 02:35:19;;;;;;;0.80;0.60;;;19.10;72.60;;;;;;5034138;28;20108;-67
2022/07/11 02:37:44;;;;;;;1.90;0.90;;;19.10;72.70;;;;;;5030423;28;20040;-67
2022/07/11 02:40:10;;;;;;;1.58;1.05;;;19.00;72.80;;;;;;5045029;28;20025;-67
2022/07/11 02:42:36;;;;;;;1.55;0.80;;;19.00;72.90;;;;;;5048259;28;20033;-67
2022/07/11 02:45:06;;;;;;;3.33;0.80;;;18.90;72.90;;;;;;5045179;28;20029;-67
2022/07/11 02:47:32;;;;;;;1.98;1.05;;;18.90;73.10;;;;;;5030087;28;20030;-67
2022/07/11 02:49:58;;;;;;;1.20;0.80;;;18.90;73.10;;;;;;5032416;28;20044;-67
2022/07/11 02:52:23;;;;;;;1.70;0.88;;;18.90;73.30;;;;;;5029779;28;20045;-67
2022/07/11 02:54:49;;;;;;;2.15;0.90;;;18.90;73.40;;;;;;5039043;28;20104;-67
2022/07/11 02:57:14;;;;;;;1.75;0.93;;;18.80;73.70;;;;;;5047922;28;20027;-67
2022/07/11 02:59:40;;;;;;;0.93;0.70;;;18.80;73.60;;;;;;5041336;28;20034;-67
2022/07/11 03:02:05;;;;;;;1.77;1.00;;;18.80;73.70;;;;;;5048367;28;20071;-68
2022/07/11 03:04:34;;;;;;;3.17;1.20;;;18.80;73.80;;;;;;5035988;28;20021;-67
2022/07/11 03:07:00;;;;;;;1.88;0.90;;;18.70;73.90;;;;;;5048805;28;20100;-67
2022/07/11 03:09:25;;;;;;;1.98;1.00;;;18.70;74.10;;;;;;5045445;28;20437;-67
2022/07/11 03:11:52;;;;;;;1.17;0.95;;;18.60;74.30;;;;;;5043421;28;20037;-67
2022/07/11 03:14:18;;;;;;;1.90;0.90;;;18.50;74.80;;;;;;5040071;28;20009;-66
2022/07/11 03:16:43;;;;;;;1.15;0.80;;;18.50;75.00;;;;;;5029685;28;20033;-67
2022/07/11 03:19:09;;;;;;;1.58;0.88;;;18.50;75.00;;;;;;5045635;28;20021;-68
2022/07/11 03:21:34;;;;;;;2.30;0.90;;;18.50;75.00;;;;;;5039751;28;20081;-66
2022/07/11 03:24:00;;;;;;;0.98;0.75;;;18.50;75.00;;;;;;5048136;28;20104;-67
2022/07/11 03:26:26;;;;;;;2.50;0.93;;;18.50;75.00;;;;;;5033410;28;20092;-67
2022/07/11 03:28:51;;;;;;;3.35;1.10;;;18.50;75.20;;;;;;5045435;28;20017;-67
2022/07/11 03:31:18;;;;;;;1.65;0.93;;;18.50;75.20;;;;;;5039469;28;20361;-68
2022/07/11 03:33:44;;;;;;;1.33;0.82;;;18.50;75.40;;;;;;5052502;28;20032;-68
2022/07/11 03:36:09;;;;;;;1.40;1.10;;;18.40;75.40;;;;;;5038481;28;20392;-67
2022/07/11 03:38:35;;;;;;;2.38;1.33;;;18.40;75.60;;;;;;5041929;28;20044;-67
2022/07/11 03:41:00;;;;;;;2.53;0.90;;;18.30;76.00;;;;;;5052522;28;20029;-67
2022/07/11 03:43:26;;;;;;;1.95;1.00;;;18.30;76.00;;;;;;5051213;28;20032;-67
2022/07/11 03:45:52;;;;;;;1.92;0.93;;;18.30;76.10;;;;;;5041962;28;20033;-68
2022/07/11 03:48:17;;;;;;;1.75;1.10;;;18.30;76.20;;;;;;5040410;28;20043;-68
2022/07/11 03:50:44;;;;;;;1.33;0.95;;;18.30;76.30;;;;;;5041172;28;20148;-68
2022/07/11 03:53:09;;;;;;;1.02;0.95;;;18.20;76.40;;;;;;5044299;28;20101;-67
2022/07/11 03:55:37;;;;;;;2.22;1.20;;;18.20;76.40;;;;;;5034716;28;20037;-68
2022/07/11 03:58:03;;;;;;;2.17;1.10;;;18.20;76.50;;;;;;5032368;28;20021;-68
2022/07/11 04:00:28;;;;;;;1.17;0.90;;;18.20;76.50;;;;;;5032077;28;20079;-68
2022/07/11 04:02:54;;;;;;;1.33;0.82;;;18.20;76.50;;;;;;5033216;28;20029;-68
2022/07/11 04:05:19;;;;;;;1.23;0.90;;;18.20;76.50;;;;;;5033092;28;20091;-68
2022/07/11 04:07:45;;;;;;;1.20;0.90;;;18.30;76.40;;;;;;5051551;28;20450;-68
2022/07/11 04:10:11;;;;;;;1.25;0.95;;;18.30;76.40;;;;;;5050314;28;20029;-68
2022/07/11 04:12:36;;;;;;;1.50;1.30;;;18.20;76.50;;;;;;5050956;28;20759;-68
2022/07/11 04:15:02;;;;;;;1.83;1.00;;;18.20;76.80;;;;;;5039273;28;20025;-68
2022/07/11 04:17:28;;;;;;;2.20;1.10;;;18.20;76.80;;;;;;5048519;28;20146;-68
2022/07/11 04:19:54;;;;;;;1.83;1.13;;;18.20;77.10;;;;;;5052084;28;20123;-67
2022/07/11 04:22:20;;;;;;;1.50;1.00;;;18.20;77.10;;;;;;5049832;28;20074;-68
2022/07/11 04:24:45;;;;;;;1.95;1.08;;;18.20;77.10;;;;;;5044503;28;20505;-67
2022/07/11 04:27:11;;;;;;;1.02;0.90;;;18.20;77.10;;;;;;5043381;28;20032;-67
2022/07/11 04:29:36;;;;;;;2.17;1.02;;;18.20;77.10;;;;;;5050976;28;20028;-68
2022/07/11 04:32:02;;;;;;;1.00;0.88;;;18.10;77.30;;;;;;5047381;28;20025;-67
2022/07/11 04:34:28;;;;;;;1.55;1.00;;;18.20;77.50;;;;;;5039939;28;20053;-68
2022/07/11 04:36:53;;;;;;;1.33;0.98;;;18.10;77.60;;;;;;5041702;28;20026;-68
2022/07/11 04:39:19;;;;;;;0.95;0.85;;;18.10;77.70;;;;;;5042530;28;20017;-69
2022/07/11 04:41:45;;;;;;;1.10;0.90;;;18.10;77.80;;;;;;5036169;28;20046;-69
2022/07/11 04:44:10;;;;;;;1.13;0.82;;;18.10;77.80;;;;;;5034171;28;20113;-69
2022/07/11 04:46:37;;;;;;;1.20;0.98;;;18.20;77.80;;;;;;5038273;28;20020;-67
2022/07/11 04:49:03;;;;;;;0.82;0.82;;;18.20;77.70;;;;;;5035767;28;20036;-69
2022/07/11 04:51:28;;;;;;;1.48;0.80;;;18.20;77.70;;;;;;5045372;28;20034;-68
2022/07/11 04:53:54;;;;;;;1.58;0.98;;;18.20;77.70;;;;;;5039485;28;20029;-67
2022/07/11 04:56:19;;;;;;;2.28;1.20;;;18.20;77.80;;;;;;5039516;28;20025;-69
2022/07/11 04:58:45;;;;;;;1.15;0.90;;;18.20;77.90;;;;;;5042634;28;20036;-69
2022/07/11 05:01:10;;;;;;;1.20;0.93;;;18.20;77.90;;;;;;5038201;28;20025;-68
2022/07/11 05:03:36;;;;;;;1.15;0.80;;;18.20;77.90;;;;;;5039393;28;20032;-67
2022/07/11 05:06:04;;;;;;;1.10;0.77;;;18.20;78.00;;;;;;5040005;28;20025;-68
2022/07/11 05:08:29;;;;;;;1.30;1.00;;;18.20;78.10;;;;;;5043453;28;20418;-68
2022/07/11 05:10:56;;;;;;;1.00;0.88;;;18.20;78.10;;;;;;5050438;28;20025;-66
2022/07/11 05:13:23;;;;;;;1.20;1.00;;;18.20;78.20;;;;;;5034477;28;20038;-68
2022/07/11 05:15:48;;;;;;;1.10;1.00;;;18.20;78.40;;;;;;5041642;28;20028;-66
2022/07/11 05:18:14;;;;;;;1.40;0.93;;;18.10;78.80;;;;;;5041492;28;20075;-67
2022/07/11 05:20:39;;;;;;;1.00;0.90;;;18.10;78.90;;;;;;5041880;28;20087;-66
2022/07/11 05:23:05;;;;;;;1.25;0.90;;;18.20;78.70;;;;;;5050265;28;20468;-66
2022/07/11 05:25:30;;;;;;;1.20;0.73;;;18.30;78.40;;;;;;5045914;28;20036;-67
2022/07/11 05:27:56;;;;;;;0.70;0.70;;;18.40;78.20;;;;;;5037338;28;20032;-67
2022/07/11 05:30:21;;;;;;;1.40;0.88;;;18.40;78.20;;;;;;5041326;28;20036;-66
2022/07/11 05:32:47;;;;;;;1.05;0.90;;;18.40;78.10;;;;;;5041712;28;20032;-67
2022/07/11 05:35:13;;;;;;;1.48;1.00;;;18.50;78.00;;;;;;5046834;28;20024;-68
2022/07/11 05:37:38;;;;;;;0.90;0.90;;;18.50;78.00;;;;;;5048208;28;20052;-67
2022/07/11 05:40:05;;;;;;;1.30;0.88;;;18.40;78.00;;;;;;5036747;28;20064;-66
2022/07/11 05:42:31;;;;;;;0.82;0.80;;;18.40;78.10;;;;;;5049217;28;20190;-69
2022/07/11 05:44:56;;;;;;;1.20;0.80;;;18.40;78.30;;;;;;5047980;28;20029;-68
2022/07/11 05:47:22;;;;;;;1.58;0.90;;;18.40;78.30;;;;;;5047485;28;20037;-69
2022/07/11 05:49:48;;;;;;;0.77;0.75;;;18.40;78.40;;;;;;5047439;28;20111;-69
2022/07/11 05:52:13;;;;;;;1.10;0.80;;;18.40;78.40;;;;;;5049696;28;20143;-66
2022/07/11 05:54:39;;;;;;;1.42;0.98;;;18.40;78.50;;;;;;5046329;28;20057;-67
2022/07/11 05:57:05;;;;;;;1.08;1.00;;;18.40;78.70;;;;;;5042007;28;20096;-66
2022/07/11 05:59:31;;;;;;;0.90;0.80;;;18.40;78.70;;;;;;5048186;28;20100;-67
2022/07/11 06:01:56;;;;;;;0.75;0.73;;;18.40;78.60;;;;;;5052144;28;20049;-66
2022/07/11 06:04:22;;;;;;;0.80;0.70;;;18.50;78.80;;;;;;5043886;28;20391;-67
2022/07/11 06:06:48;;;;;;;0.70;0.70;;;18.50;78.50;;;;;;5047311;28;20108;-67
2022/07/11 06:09:14;;;;;;;0.70;0.70;;;18.60;78.50;;;;;;5034355;28;20026;-67
2022/07/11 06:11:40;;;;;;;0.50;0.50;;;18.60;78.50;;;;;;5042934;28;20119;-67
2022/07/11 06:14:06;;;;;;;0.60;0.60;;;18.70;78.40;;;;;;5039725;28;20025;-67
2022/07/11 06:16:32;;;;;;;0.63;0.63;;;18.70;78.20;;;;;;5039277;28;20060;-66
2022/07/11 06:18:58;;;;;;;0.60;0.60;;;18.70;78.20;;;;;;5045819;28;20025;-66
2022/07/11 06:21:24;;;;;;;0.82;0.70;;;18.70;78.20;;;;;;5043134;28;20026;-65
2022/07/11 06:23:50;;;;;;;0.63;0.40;;;18.70;78.10;;;;;;5045780;28;20021;-66
2022/07/11 06:26:16;;;;;;;0.50;0.50;;;18.70;78.10;;;;;;5046463;28;20051;-66
2022/07/11 06:28:42;;;;;;;0.50;0.50;;;18.70;78.10;;;;;;5047443;28;20032;-67
2022/07/11 06:31:08;;;;;;;0.50;0.50;;;18.80;78.10;;;;;;5039339;28;20056;-67
2022/07/11 06:33:37;;;;;;;0.47;0.47;;;18.80;78.00;;;;;;5040513;28;20034;-66
2022/07/11 06:36:04;;;;;;;0.68;0.60;;;18.90;78.10;;;;;;5034593;28;20534;-67
2022/07/11 06:38:30;;;;;;;0.55;0.55;;;19.00;77.90;;;;;;5035827;28;20033;-67
2022/07/11 06:40:56;;;;;;;0.50;0.50;;;19.00;77.70;;;;;;5038824;28;20030;-67
2022/07/11 06:43:22;;;;;;;0.40;0.40;;;19.00;77.70;;;;;;5041367;28;20025;-67
2022/07/11 06:45:48;;;;;;;0.45;0.45;;;19.00;77.60;;;;;;5043170;28;20029;-67
2022/07/11 06:48:13;;;;;;;1.15;0.50;;;19.00;77.70;;;;;;5040060;28;20614;-67
2022/07/11 06:50:39;;;;;;;0.57;0.57;;;19.00;77.70;;;;;;5048780;28;20037;-66
2022/07/11 06:53:05;;;;;;;0.45;0.45;;;19.10;77.70;;;;;;5044570;28;20025;-67
2022/07/11 06:55:32;;;;;;;0.40;0.40;;;19.20;77.70;;;;;;5040157;28;20048;-67
2022/07/11 06:57:58;;;;;;;0.70;0.40;;;19.20;77.60;;;;;;5035786;28;20579;-67
2022/07/11 07:00:23;;;;;;;0.80;0.50;;;19.20;77.40;;;;;;5044335;28;20025;-67
2022/07/11 07:02:49;;;;;;;0.82;0.50;;;19.20;77.40;;;;;;5048057;28;20463;-66
2022/07/11 07:05:15;;;;;;;0.50;0.50;;;19.30;77.40;;;;;;5038048;28;20384;-67
2022/07/11 07:07:40;;;;;;;0.50;0.50;;;19.30;77.50;;;;;;5037209;28;20018;-67
2022/07/11 07:10:06;;;;;;;0.63;0.40;;;19.30;77.70;;;;;;5037563;28;20017;-67
2022/07/11 07:12:32;;;;;;;0.50;0.50;;;19.40;77.50;;;;;;5042311;28;20068;-65
2022/07/11 07:15:00;;;;;;;0.40;0.40;;;19.30;77.50;;;;;;5037004;28;20031;-66
2022/07/11 07:17:25;;;;;;;0.40;0.40;;;19.30;77.60;;;;;;5042369;28;20104;-65
2022/07/11 07:19:51;;;;;;;0.30;0.30;;;19.30;77.50;;;;;;5037063;28;20120;-66
2022/07/11 07:22:16;;;;;;;0.52;0.52;;;19.50;77.30;;;;;;5037762;28;20024;-66
2022/07/11 07:24:43;;;;;;;0.30;0.30;;;19.50;77.40;;;;;;5043583;28;20025;-66
2022/07/11 07:27:09;;;;;;;0.30;0.30;;;19.60;77.20;;;;;;5042741;28;20029;-66
2022/07/11 07:29:35;;;;;;;0.40;0.40;;;19.70;76.90;;;;;;5041317;28;20706;-66
2022/07/11 07:32:00;;;;;;;0.52;0.40;;;19.90;76.60;;;;;;5042959;28;20025;-67
2022/07/11 07:34:26;;;;;;;0.40;0.40;;;20.00;76.30;;;;;;5036214;28;20014;-66
2022/07/11 07:36:52;;;;;;;0.38;0.38;;;20.00;76.30;;;;;;5033306;28;20060;-66
2022/07/11 07:39:18;;;;;;;0.40;0.40;;;20.10;76.20;;;;;;5037850;28;20024;-66
2022/07/11 07:41:43;;;;;;;0.30;0.30;;;20.10;76.00;;;;;;5044392;28;20033;-67
2022/07/11 07:44:09;;;;;;;0.30;0.30;;;20.20;75.80;;;;;;5041041;28;20025;-66
2022/07/11 07:46:35;;;;;;;0.63;0.50;;;20.20;75.70;;;;;;5039833;28;20029;-66
2022/07/11 07:49:00;;;;;;;0.38;0.38;;;20.20;75.80;;;;;;5044338;28;20025;-66
2022/07/11 07:51:27;;;;;;;0.50;0.50;;;20.30;76.00;;;;;;5042037;28;20032;-65
2022/07/11 07:53:52;;;;;;;0.40;0.40;;;20.40;76.00;;;;;;5044126;28;20037;-65
2022/07/11 07:56:19;;;;;;;1.20;0.50;;;20.60;75.70;;;;;;5047721;28;20151;-64
2022/07/11 07:58:44;;;;;;;0.40;0.40;;;20.80;75.00;;;;;;5037714;28;20037;-65
2022/07/11 08:03:54;;;;;;;0.55;0.47;;;21.10;74.00;;;;;;5040588;28;20036;-66
2022/07/11 08:06:20;;;;;;;0.52;0.40;;;21.10;73.60;;;;;;5037183;28;20021;-66
2022/07/11 08:08:46;;;;;;;0.40;0.40;;;21.10;73.70;;;;;;5038182;28;20032;-66
2022/07/11 08:11:12;;;;;;;0.35;0.35;;;21.10;73.70;;;;;;5034097;28;20490;-66
2022/07/11 08:13:38;;;;;;;0.45;0.45;;;21.10;73.70;;;;;;5038571;28;20026;-65
2022/07/11 08:16:07;;;;;;;0.38;0.38;;;21.10;73.70;;;;;;5036606;28;20099;-66
2022/07/11 08:18:36;;;;;;;0.30;0.30;;;21.10;73.80;;;;;;5039910;28;20124;-67
2022/07/11 08:21:02;;;;;;;0.73;0.60;;;21.10;73.60;;;;;;5037464;28;20034;-67
2022/07/11 08:23:28;;;;;;;0.52;0.52;;;21.10;73.40;;;;;;5038126;28;20033;-66
2022/07/11 08:25:54;;;;;;;0.40;0.40;;;21.10;73.40;;;;;;5038692;28;20052;-66
2022/07/11 08:28:19;;;;;;;0.50;0.50;;;21.00;73.30;;;;;;5035883;28;20093;-65
2022/07/11 08:30:45;;;;;;;0.35;0.35;;;20.90;73.30;;;;;;5039431;28;20517;-67
2022/07/11 08:33:11;;;;;;;0.40;0.40;;;20.90;73.40;;;;;;5036001;28;20017;-67
2022/07/11 08:35:37;;;;;;;0.52;0.52;;;21.10;73.70;;;;;;5038888;28;20056;-66
2022/07/11 08:38:03;;;;;;;0.50;0.50;;;21.30;73.30;;;;;;5041684;28;20029;-67
2022/07/11 08:40:29;;;;;;;0.65;0.50;;;21.20;72.70;;;;;;5036151;28;20116;-67
2022/07/11 08:42:57;;;;;;;0.35;0.35;;;21.20;72.70;;;;;;5039443;28;20021;-66
2022/07/11 08:45:31;;;;;;;0.40;0.40;;;21.30;72.50;;;;;;5032580;28;20029;-68
2022/07/11 08:47:58;;;;;;;0.47;0.47;;;21.30;72.20;;;;;;5037822;28;20024;-67
2022/07/11 08:50:26;;;;;;;0.52;0.40;;;21.20;72.20;;;;;;5038594;28;20049;-68
2022/07/11 08:52:54;;;;;;;0.40;0.40;;;21.20;72.30;;;;;;5040200;28;20036;-66
2022/07/11 08:55:20;;;;;;;0.57;0.40;;;21.00;72.40;;;;;;5037629;28;20407;-66
2022/07/11 08:57:46;;;;;;;0.40;0.40;;;20.90;72.40;;;;;;5041360;28;20024;-67
2022/07/11 09:00:13;;;;;;;0.30;0.30;;;20.90;72.60;;;;;;5037548;28;20029;-67
2022/07/11 09:02:41;;;;;;;0.55;0.47;;;20.90;72.80;;;;;;5041960;28;20047;-67
2022/07/11 09:05:07;;;;;;;1.25;0.50;;;20.90;73.00;;;;;;5041189;28;20038;-67
2022/07/11 09:07:46;;;;;;;0.50;0.50;;;20.90;73.10;;;;;;5040051;28;20147;-67
2022/07/11 09:10:17;;;;;;;0.40;0.40;;;20.80;73.20;;;;;;5039260;28;20102;-67
2022/07/11 09:12:59;;;;;;;0.77;0.40;;;20.90;73.20;;;;;;5042310;28;20026;-67
2022/07/11 09:15:40;;;;;;;0.77;0.40;;;20.90;73.10;;;;;;5049138;28;20033;-67
2022/07/11 09:18:40;;;;;;;0.50;0.50;;;20.90;73.10;;;;;;5043331;28;20449;-67
2022/07/11 09:26:47;;;;;;;0.60;0.50;;;21.10;72.30;;;;;;5038792;28;20044;-66
2022/07/11 09:29:15;;;;;;;0.50;0.50;;;21.20;72.80;;;;;;5040634;28;20100;-66
2022/07/11 09:31:44;;;;;;;0.50;0.50;;;21.20;72.00;;;;;;5044907;28;20016;-66
2022/07/11 09:34:13;;;;;;;0.82;0.60;;;21.20;72.00;;;;;;5044443;28;20040;-66
2022/07/11 09:36:44;;;;;;;0.88;0.60;;;21.10;72.10;;;;;;5039613;28;20025;-66
2022/07/11 09:39:21;;;;;;;0.52;0.50;;;21.00;72.20;;;;;;5041840;28;20048;-66
2022/07/11 09:41:48;;;;;;;0.52;0.52;;;21.00;72.60;;;;;;5047195;28;20029;-66
2022/07/11 09:44:19;;;;;;;0.43;0.43;;;21.00;72.60;;;;;;5038945;28;20021;-66
2022/07/11 09:46:49;;;;;;;0.70;0.70;;;21.00;72.80;;;;;;5041945;28;20490;-66
2022/07/11 09:49:17;;;;;;;0.68;0.50;;;20.90;72.90;;;;;;5039838;28;20021;-66
2022/07/11 09:51:43;;;;;;;0.50;0.50;;;20.90;73.10;;;;;;5039054;28;20021;-66
2022/07/11 09:54:10;;;;;;;1.40;0.70;;;20.80;73.10;;;;;;5044528;28;20438;-66
2022/07/11 09:56:44;;;;;;;0.50;0.50;;;20.80;73.10;;;;;;5047644;28;20402;-66
2022/07/11 09:59:12;;;;;;;0.77;0.60;;;20.80;73.20;;;;;;5038376;28;20036;-66
2022/07/11 10:01:39;;;;;;;0.80;0.80;;;20.90;72.90;;;;;;5043841;28;20048;-66
2022/07/11 10:04:06;;;;;;;0.50;0.50;;;20.90;72.70;;;;;;5042707;28;20029;-66
2022/07/11 10:06:32;;;;;;;0.70;0.70;;;20.90;72.70;;;;;;5040393;28;20111;-66
2022/07/11 10:08:58;;;;;;;0.57;0.57;;;20.90;72.60;;;;;;5047957;28;20029;-66
2022/07/11 10:11:23;;;;;;;0.50;0.50;;;21.00;72.40;;;;;;5037323;28;20098;-66
2022/07/11 10:13:50;;;;;;;1.02;0.60;;;21.10;72.30;;;;;;5039560;28;20433;-66
2022/07/11 10:16:35;;;;;;;0.50;0.50;;;21.20;72.00;;;;;;5038113;28;20033;-66
2022/07/11 10:19:40;;;;;;;0.65;0.52;;;21.30;71.90;;;;;;5038836;28;20029;-66
2022/07/11 10:22:29;;;;;;;0.57;0.52;;;21.20;71.60;;;;;;5044442;28;20025;-66
2022/07/11 10:25:18;;;;;;;0.68;0.50;;;21.40;71.50;;;;;;5040912;28;20972;-66
2022/07/11 10:28:08;;;;;;;0.65;0.50;;;21.40;71.20;;;;;;5032515;28;20045;-66
2022/07/11 10:30:44;;;;;;;0.32;0.32;;;21.50;71.30;;;;;;5043250;28;20665;-66
2022/07/11 10:33:09;;;;;;;0.50;0.50;;;21.50;71.20;;;;;;5040633;28;20044;-67
2022/07/11 10:35:35;;;;;;;0.43;0.40;;;21.50;71.30;;;;;;5043867;28;20029;-67
2022/07/11 10:38:05;;;;;;;0.40;0.40;;;21.40;71.40;;;;;;5038852;28;20162;-67
2022/07/11 10:40:42;;;;;;;0.40;0.30;;;21.40;71.50;;;;;;5039869;28;20125;-67
2022/07/11 10:43:07;;;;;;;0.40;0.40;;;21.50;71.40;;;;;;5042536;28;20074;-67
2022/07/11 10:46:08;;;;;;;0.73;0.40;;;21.70;71.10;;;;;;5037487;28;20021;-66
2022/07/11 10:48:55;;;;;;;0.60;0.40;;;21.90;70.70;;;;;;5046977;28;20021;-67
2022/07/11 10:51:45;;;;;;;0.45;0.40;;;22.10;70.20;;;;;;5043762;28;20032;-67
2022/07/11 10:54:44;;;;;;;0.40;0.40;;;22.40;69.70;;;;;;5041205;28;20082;-67
2022/07/11 10:57:31;;;;;;;0.40;0.40;;;22.60;69.20;;;;;;5030136;28;21167;-67
2022/07/11 11:00:01;;;;;;;0.35;0.35;;;22.70;68.60;;;;;;5039367;28;20391;-67
2022/07/11 11:02:28;;;;;;;0.65;0.40;;;22.80;68.40;;;;;;5043552;28;20027;-66
2022/07/11 11:05:01;;;;;;;0.75;0.43;;;22.80;68.10;;;;;;5041109;28;20063;-67
2022/07/11 11:07:44;;;;;;;0.30;0.30;;;22.80;68.00;;;;;;5037495;28;20033;-67
2022/07/11 11:10:18;;;;;;;0.85;0.30;;;22.90;68.00;;;;;;5038189;28;20057;-66
2022/07/11 11:13:10;;;;;;;0.30;0.30;;;22.90;67.70;;;;;;5042070;28;20202;-67
2022/07/11 11:15:54;;;;;;;0.35;0.35;;;23.00;67.80;;;;;;5043292;28;20959;-67
2022/07/11 11:18:25;;;;;;;0.43;0.30;;;23.00;67.80;;;;;;5038903;28;20033;-67
2022/07/11 11:21:02;;;;;;;0.40;0.30;;;22.90;67.80;;;;;;5036612;28;20033;-67
2022/07/11 11:23:37;;;;;;;0.50;0.50;;;22.80;68.40;;;;;;5039640;28;20040;-67
2022/07/11 11:26:20;;;;;;;0.80;0.63;;;22.80;67.90;;;;;;5041621;28;20035;-67
2022/07/11 11:28:58;;;;;;;0.50;0.40;;;22.60;68.10;;;;;;5037861;28;20055;-67
2022/07/11 11:31:25;;;;;;;0.38;0.38;;;22.50;68.40;;;;;;5042609;28;20039;-67
2022/07/11 11:33:51;;;;;;;0.63;0.50;;;22.40;68.60;;;;;;5044812;28;20033;-66
2022/07/11 11:36:18;;;;;;;0.40;0.40;;;22.50;68.70;;;;;;5043728;28;20040;-66
2022/07/11 11:38:46;;;;;;;0.50;0.50;;;22.50;68.60;;;;;;5039040;28;20117;-67
2022/07/11 11:41:14;;;;;;;0.63;0.57;;;22.70;68.60;;;;;;5040541;28;20028;-67
2022/07/11 11:43:46;;;;;;;0.50;0.50;;;22.70;68.50;;;;;;5040975;28;20027;-67
2022/07/11 11:46:13;;;;;;;0.70;0.50;;;22.70;68.40;;;;;;5045602;28;20147;-67
2022/07/11 11:48:45;;;;;;;0.50;0.50;;;22.70;68.40;;;;;;5041206;28;20958;-67
2022/07/11 11:51:15;;;;;;;0.70;0.52;;;22.70;68.40;;;;;;5046546;28;20128;-67
2022/07/11 11:53:43;;;;;;;0.50;0.40;;;22.80;68.40;;;;;;5046544;28;20419;-66
2022/07/11 11:56:21;;;;;;;0.50;0.50;;;22.80;68.40;;;;;;5047755;28;20020;-67
2022/07/11 11:58:48;;;;;;;2.40;0.52;;;22.80;68.40;;;;;;5038929;28;20631;-67
2022/07/11 12:01:20;;;;;;;0.60;0.60;;;22.80;68.50;;;;;;5041341;28;20024;-67
2022/07/11 12:03:57;;;;;;;1.73;0.75;;;22.80;68.30;;;;;;5046129;28;20074;-67
2022/07/11 12:06:26;;;;;;;0.70;0.68;;;22.80;68.20;;;;;;5043771;28;20025;-67
2022/07/11 12:09:12;;;;;;;1.02;0.60;;;22.70;68.40;;;;;;5040334;28;20487;-67
2022/07/11 12:11:39;;;;;;;0.98;0.50;;;22.70;68.40;;;;;;5039550;28;20055;-67
2022/07/11 12:14:07;;;;;;;0.60;0.50;;;22.70;68.40;;;;;;5040591;28;20032;-67
2022/07/11 12:16:43;;;;;;;1.83;0.90;;;22.70;68.40;;;;;;5044451;28;20029;-67
2022/07/11 12:19:23;;;;;;;0.40;0.32;;;22.80;68.40;;;;;;5043324;28;20112;-67
2022/07/11 12:21:53;;;;;;;0.40;0.40;;;22.80;68.30;;;;;;5044062;28;20479;-67
2022/07/11 12:24:26;;;;;;;0.52;0.50;;;22.80;68.30;;;;;;5042190;28;20075;-67
2022/07/11 12:26:52;;;;;;;0.40;0.40;;;22.80;68.10;;;;;;5043546;28;20061;-67
2022/07/11 12:29:22;;;;;;;0.30;0.30;;;22.80;68.00;;;;;;5041529;28;20020;-67
2022/07/11 12:31:59;;;;;;;0.45;0.40;;;22.90;68.10;;;;;;5044234;28;20045;-67
2022/07/11 12:34:27;;;;;;;0.45;0.30;;;22.90;68.00;;;;;;5041570;28;20033;-67
2022/07/11 12:37:07;;;;;;;0.30;0.30;;;23.00;67.80;;;;;;5042817;28;20032;-67
2022/07/11 12:39:38;;;;;;;0.60;0.40;;;23.10;67.60;;;;;;5042488;28;20033;-67
2022/07/11 12:42:26;;;;;;;0.77;0.60;;;23.00;67.10;;;;;;5043171;28;20146;-67
2022/07/11 12:45:10;;;;;;;0.43;0.40;;;23.00;67.00;;;;;;5044542;28;20865;-67
2022/07/11 12:47:41;;;;;;;0.30;0.30;;;23.10;66.70;;;;;;5044373;28;20148;-67
2022/07/11 12:50:28;;;;;;;0.40;0.40;;;23.10;66.50;;;;;;5045624;28;20071;-67
2022/07/11 12:52:56;;;;;;;0.45;0.30;;;23.10;66.40;;;;;;5044826;28;20279;-67
2022/07/11 12:55:35;;;;;;;0.40;0.40;;;23.10;66.50;;;;;;5041646;28;20044;-68
2022/07/11 12:58:10;;;;;;;0.30;0.30;;;23.10;66.30;;;;;;5047388;28;20021;-68
2022/07/11 13:00:37;;;;;;;0.35;0.30;;;23.10;66.90;;;;;;5041734;28;20131;-67
2022/07/11 13:03:05;;;;;;;0.30;0.30;;;23.10;66.00;;;;;;5042689;28;20017;-67